Time;durP1;ratioP1;P1;durP2;ratioP2;P2;SDS_P1;SDS_P2;PMS_P1;PMS_P2;Temp;Humidity;BMP_temperature;BMP_pressure;BME280_temperature;BME280_humidity;BME280_pressure;Samples;Min_cycle;Max_cycle;Signal;HPM_P1;HPM_P2
2023/08/28 00:02:06;;;;;;;0.37;0.37;;;;;;;16.46;100.00;95092.13;4330716;32;20192;-67
2023/08/28 00:04:31;;;;;;;0.10;0.10;;;;;;;16.46;100.00;95083.31;4330508;32;20216;-67
2023/08/28 00:06:56;;;;;;;0.43;0.43;;;;;;;16.45;100.00;95095.13;4330105;32;20190;-67
2023/08/28 00:09:22;;;;;;;0.63;0.63;;;;;;;16.43;100.00;95081.31;4329370;32;20212;-67
2023/08/28 00:11:47;;;;;;;0.40;0.40;;;;;;;16.38;100.00;95076.97;4310138;32;20265;-67
2023/08/28 00:14:12;;;;;;;0.47;0.47;;;;;;;16.46;100.00;95073.38;4332247;32;20204;-67
2023/08/28 00:16:38;;;;;;;0.17;0.17;;;;;;;16.55;100.00;95069.81;4330883;32;20220;-67
2023/08/28 00:19:03;;;;;;;0.57;0.57;;;;;;;16.50;100.00;95071.59;4333312;32;20256;-67
2023/08/28 00:21:29;;;;;;;0.50;0.50;;;;;;;16.38;100.00;95062.81;4319672;32;20198;-66
2023/08/28 00:23:54;;;;;;;0.20;0.20;;;;;;;16.44;100.00;95051.50;4333008;32;20185;-67
2023/08/28 00:26:20;;;;;;;0.37;0.37;;;;;;;16.46;100.00;95041.25;4329639;32;20185;-67
2023/08/28 00:28:45;;;;;;;0.90;0.90;;;;;;;16.56;100.00;95029.31;4332484;32;20286;-67
2023/08/28 00:31:10;;;;;;;0.47;0.47;;;;;;;16.56;100.00;95036.56;4339759;32;20186;-67
2023/08/28 00:33:36;;;;;;;0.40;0.40;;;;;;;16.70;100.00;95026.28;4334054;32;20186;-67
2023/08/28 00:36:01;;;;;;;0.60;0.60;;;;;;;16.61;100.00;95022.94;4333199;32;20201;-67
2023/08/28 00:38:26;;;;;;;0.13;0.13;;;;;;;16.60;100.00;95037.44;4329319;32;20206;-67
2023/08/28 00:40:52;;;;;;;0.37;0.37;;;;;;;16.64;100.00;95038.34;4330637;32;20242;-66
2023/08/28 00:43:17;;;;;;;0.40;0.40;;;;;;;16.66;99.33;95036.09;4335812;32;20200;-67
2023/08/28 00:45:43;;;;;;;0.63;0.63;;;;;;;16.63;98.14;95048.28;4345737;32;20181;-67
2023/08/28 00:48:12;;;;;;;0.33;0.33;;;;;;;16.68;98.76;95057.97;4332037;32;20190;-67
2023/08/28 00:50:38;;;;;;;0.50;0.50;;;;;;;16.61;99.45;95063.91;4330620;32;20224;-66
2023/08/28 00:53:06;;;;;;;0.20;0.20;;;;;;;16.32;98.95;95064.94;4332785;32;20387;-67
2023/08/28 00:55:34;;;;;;;0.43;0.43;;;;;;;16.43;98.08;95066.03;4332974;32;20184;-67
2023/08/28 00:58:01;;;;;;;0.50;0.50;;;;;;;16.54;98.53;95078.97;4332683;32;20174;-67
2023/08/28 01:00:28;;;;;;;0.33;0.33;;;;;;;16.55;97.86;95078.63;4331212;32;20216;-67
2023/08/28 01:02:53;;;;;;;0.43;0.43;;;;;;;16.48;97.62;95073.06;4328596;32;20197;-67
2023/08/28 01:05:25;;;;;;;0.10;0.10;;;;;;;16.36;97.96;95055.13;4331581;32;20192;-66
2023/08/28 01:08:09;;;;;;;0.30;0.30;;;;;;;16.47;98.58;95052.75;4328526;32;20189;-67
2023/08/28 01:10:41;;;;;;;0.37;0.37;;;;;;;16.30;98.47;95051.09;4336570;32;20329;-67
2023/08/28 01:13:14;;;;;;;4.53;0.50;;;;;;;16.27;98.74;95048.31;4326673;32;20192;-67
2023/08/28 01:15:40;;;;;;;0.23;0.23;;;;;;;16.59;97.54;95051.97;4318519;32;20208;-66
2023/08/28 01:18:07;;;;;;;0.30;0.30;;;;;;;16.37;97.74;95048.66;4328549;32;20185;-67
2023/08/28 01:20:34;;;;;;;0.60;0.60;;;;;;;16.45;98.26;95047.72;4327247;32;20189;-67
2023/08/28 01:23:21;;;;;;;0.47;0.47;;;;;;;16.39;99.13;95049.09;4332189;32;20170;-66
2023/08/28 01:25:47;;;;;;;0.30;0.30;;;;;;;16.41;98.57;95051.44;4317326;32;20239;-67
2023/08/28 01:28:12;;;;;;;0.50;0.50;;;;;;;16.46;98.73;95056.53;4333316;32;20231;-67
2023/08/28 01:30:38;;;;;;;2.00;0.37;;;;;;;16.44;98.56;95064.13;4342501;32;20198;-67
2023/08/28 01:33:03;;;;;;;0.70;0.70;;;;;;;16.27;98.97;95062.47;4326204;32;20254;-67
2023/08/28 01:35:31;;;;;;;0.10;0.10;;;;;;;16.40;98.69;95052.53;4318107;32;20264;-67
2023/08/28 01:38:20;;;;;;;0.97;0.93;;;;;;;16.38;98.72;95047.53;4318288;32;20221;-66
2023/08/28 01:40:59;;;;;;;0.30;0.30;;;;;;;16.40;98.97;95044.50;4326632;32;20187;-67
2023/08/28 01:43:28;;;;;;;0.50;0.50;;;;;;;16.36;99.10;95041.72;4326210;32;20264;-67
2023/08/28 01:45:54;;;;;;;0.40;0.40;;;;;;;16.30;99.92;95035.03;4335315;32;20208;-66
2023/08/28 01:48:20;;;;;;;0.83;0.60;;;;;;;16.41;99.25;95030.78;4316998;32;20186;-67
2023/08/28 01:50:45;;;;;;;0.60;0.60;;;;;;;16.40;99.56;95031.13;4327735;32;20236;-67
2023/08/28 01:53:12;;;;;;;1.40;0.53;;;;;;;16.37;99.31;95029.91;4324156;32;20178;-66
2023/08/28 01:55:46;;;;;;;0.73;0.73;;;;;;;16.47;98.78;95034.00;4330765;32;20260;-67
2023/08/28 01:58:14;;;;;;;0.33;0.33;;;;;;;16.58;98.89;95029.75;4332223;32;20224;-67
2023/08/28 02:00:39;;;;;;;0.57;0.57;;;;;;;16.47;98.95;95037.47;4332127;32;20178;-67
2023/08/28 02:03:06;;;;;;;0.60;0.60;;;;;;;16.34;98.86;95021.75;4328685;32;20186;-67
2023/08/28 02:05:31;;;;;;;0.50;0.50;;;;;;;16.33;98.74;95015.63;4318146;32;20196;-67
2023/08/28 02:07:57;;;;;;;0.60;0.60;;;;;;;16.34;98.34;95025.22;4331659;32;20185;-67
2023/08/28 02:10:22;;;;;;;1.03;1.03;;;;;;;16.25;98.70;95016.50;4335169;32;20240;-67
2023/08/28 02:12:48;;;;;;;0.80;0.80;;;;;;;16.28;99.12;95015.06;4329848;32;20193;-66
2023/08/28 02:15:13;;;;;;;0.30;0.30;;;;;;;16.36;98.34;95000.78;4335212;32;20209;-67
2023/08/28 02:17:39;;;;;;;0.30;0.30;;;;;;;16.29;98.05;94996.00;4331064;32;20182;-67
2023/08/28 02:20:05;;;;;;;0.50;0.50;;;;;;;16.16;98.39;94991.78;4330523;32;20280;-66
2023/08/28 02:22:30;;;;;;;0.33;0.33;;;;;;;16.13;98.76;94987.09;4329743;32;20247;-66
2023/08/28 02:24:55;;;;;;;0.77;0.60;;;;;;;16.05;99.77;94983.41;4334198;32;20225;-67
2023/08/28 02:27:21;;;;;;;0.77;0.77;;;;;;;16.03;100.00;94968.81;4330958;32;20200;-66
2023/08/28 02:29:46;;;;;;;0.50;0.50;;;;;;;16.02;99.54;94975.25;4317765;32;20185;-67
2023/08/28 02:32:11;;;;;;;1.37;1.27;;;;;;;16.06;100.00;94968.13;4333379;32;20173;-66
2023/08/28 02:34:37;;;;;;;0.53;0.53;;;;;;;15.98;99.95;94969.06;4328618;32;20178;-67
2023/08/28 02:37:02;;;;;;;0.40;0.40;;;;;;;16.12;98.80;94958.78;4330789;32;20181;-67
2023/08/28 02:39:27;;;;;;;0.80;0.80;;;;;;;15.93;99.09;94961.25;4330881;32;20182;-66
2023/08/28 02:41:53;;;;;;;0.37;0.37;;;;;;;15.91;99.41;94953.56;4328708;32;20202;-67
2023/08/28 02:44:18;;;;;;;0.60;0.60;;;;;;;15.96;98.87;94958.69;4329907;32;20236;-67
2023/08/28 02:46:43;;;;;;;0.80;0.80;;;;;;;15.91;99.17;94958.13;4331645;32;20182;-66
2023/08/28 02:49:09;;;;;;;0.60;0.60;;;;;;;15.90;99.81;94952.00;4342198;32;20193;-67
2023/08/28 02:51:35;;;;;;;0.60;0.60;;;;;;;15.88;100.00;94953.44;4316818;32;20272;-67
2023/08/28 02:54:00;;;;;;;2.23;0.60;;;;;;;15.99;99.88;94954.56;4331299;32;20211;-66
2023/08/28 02:56:34;;;;;;;0.13;0.13;;;;;;;15.93;98.96;94961.25;4330757;32;20217;-67
2023/08/28 02:58:59;;;;;;;0.33;0.33;;;;;;;15.94;98.31;94962.81;4325388;32;20186;-67
2023/08/28 03:01:25;;;;;;;0.93;0.90;;;;;;;15.74;97.44;94972.50;4331261;32;20204;-67
2023/08/28 03:03:50;;;;;;;1.70;0.57;;;;;;;15.69;97.09;94976.19;4330408;32;20272;-66
2023/08/28 03:06:15;;;;;;;0.40;0.40;;;;;;;15.71;97.58;94965.16;4330448;32;20205;-67
2023/08/28 03:08:41;;;;;;;0.30;0.30;;;;;;;15.75;97.07;94961.47;4332370;32;20182;-67
2023/08/28 03:11:06;;;;;;;0.70;0.70;;;;;;;15.75;98.07;94961.47;4330617;32;20185;-66
2023/08/28 03:13:31;;;;;;;2.00;0.93;;;;;;;15.75;97.59;94958.03;4330181;32;20185;-67
2023/08/28 03:15:57;;;;;;;0.27;0.27;;;;;;;15.72;97.81;94962.16;4316722;32;20201;-67
2023/08/28 03:18:22;;;;;;;0.67;0.67;;;;;;;15.73;97.79;94963.69;4330622;32;20174;-67
2023/08/28 03:20:47;;;;;;;0.30;0.30;;;;;;;15.53;97.67;94964.56;4325658;32;20220;-67
2023/08/28 03:23:13;;;;;;;0.23;0.23;;;;;;;15.46;98.38;94962.41;4328163;32;20190;-67
2023/08/28 03:25:39;;;;;;;0.20;0.20;;;;;;;15.62;99.15;94961.78;4330299;32;20224;-67
2023/08/28 03:28:07;;;;;;;0.37;0.37;;;;;;;15.66;98.77;94968.03;4330414;32;20287;-67
2023/08/28 03:30:33;;;;;;;0.30;0.30;;;;;;;15.49;99.17;94963.66;4330519;32;20185;-66
2023/08/28 03:32:59;;;;;;;0.20;0.20;;;;;;;15.49;99.05;94960.97;4330480;32;20247;-67
2023/08/28 03:35:24;;;;;;;0.30;0.30;;;;;;;15.50;99.27;94965.22;4334798;32;20237;-67
2023/08/28 03:37:49;;;;;;;0.57;0.47;;;;;;;15.61;98.38;94953.00;4324617;32;20261;-67
2023/08/28 03:40:15;;;;;;;0.50;0.50;;;;;;;15.59;99.27;94962.47;4329321;32;20171;-67
2023/08/28 03:42:40;;;;;;;0.70;0.70;;;;;;;15.62;98.93;94959.91;4332435;32;20181;-67
2023/08/28 03:45:06;;;;;;;0.30;0.30;;;;;;;15.74;98.97;94969.84;4331942;32;20177;-67
2023/08/28 03:47:31;;;;;;;1.20;0.87;;;;;;;15.65;98.44;94967.25;4324269;32;20273;-67
2023/08/28 03:49:56;;;;;;;0.50;0.50;;;;;;;15.80;98.43;94979.19;4327756;32;20209;-67
2023/08/28 03:52:22;;;;;;;0.40;0.40;;;;;;;15.82;98.41;94969.72;4332222;32;20205;-67
2023/08/28 03:54:47;;;;;;;0.53;0.53;;;;;;;15.87;98.97;94971.37;4333495;32;20263;-67
2023/08/28 03:57:12;;;;;;;1.07;0.97;;;;;;;15.89;98.86;94960.34;4321426;32;20177;-66
2023/08/28 03:59:37;;;;;;;0.93;0.93;;;;;;;15.80;98.40;94952.44;4326380;32;20182;-67
2023/08/28 04:02:03;;;;;;;0.60;0.60;;;;;;;15.80;98.58;94947.84;4331125;32;20178;-67
2023/08/28 04:04:28;;;;;;;0.40;0.40;;;;;;;15.76;98.25;94940.84;4331562;32;20189;-66
2023/08/28 04:06:57;;;;;;;5.87;1.43;;;;;;;15.64;98.64;94927.47;4331979;32;20202;-67
2023/08/28 04:09:22;;;;;;;1.17;0.53;;;;;;;15.56;98.85;94936.41;4328703;32;20222;-66
2023/08/28 04:11:47;;;;;;;0.97;0.73;;;;;;;15.54;99.55;94942.06;4333565;32;20193;-67
2023/08/28 04:14:13;;;;;;;0.30;0.30;;;;;;;15.60;99.29;94942.63;4335066;32;20227;-66
2023/08/28 04:16:38;;;;;;;0.83;0.83;;;;;;;15.75;99.33;94934.72;4333009;32;20197;-67
2023/08/28 04:19:04;;;;;;;0.80;0.77;;;;;;;15.69;99.81;94925.37;4333290;32;23054;-67
2023/08/28 04:21:29;;;;;;;0.50;0.50;;;;;;;15.86;99.28;94919.00;4333227;32;20182;-66
2023/08/28 04:23:54;;;;;;;0.27;0.27;;;;;;;15.89;98.86;94910.31;4332929;32;20217;-67
2023/08/28 04:26:20;;;;;;;0.80;0.80;;;;;;;15.79;98.42;94886.69;4340859;32;20193;-67
2023/08/28 04:28:45;;;;;;;1.47;0.80;;;;;;;15.61;98.95;94878.09;4333252;32;20181;-67
2023/08/28 04:31:12;;;;;;;0.57;0.57;;;;;;;15.56;99.72;94881.03;4335999;32;20216;-67
2023/08/28 04:33:38;;;;;;;0.43;0.43;;;;;;;15.59;99.47;94877.66;4329091;32;20178;-67
2023/08/28 04:36:03;;;;;;;0.20;0.20;;;;;;;15.52;99.94;94876.66;4336303;32;20196;-67
2023/08/28 04:38:29;;;;;;;0.73;0.73;;;;;;;15.48;100.00;94880.00;4318052;32;20198;-67
2023/08/28 04:40:55;;;;;;;0.57;0.57;;;;;;;15.51;100.00;94885.78;4332169;32;20201;-67
2023/08/28 04:43:20;;;;;;;0.77;0.77;;;;;;;15.61;100.00;94880.78;4340934;32;20197;-67
2023/08/28 04:45:48;;;;;;;0.87;0.87;;;;;;;15.68;99.95;94867.62;4335087;32;20178;-67
2023/08/28 04:48:13;;;;;;;0.70;0.70;;;;;;;15.67;99.31;94858.06;4331614;32;20177;-66
2023/08/28 04:50:39;;;;;;;1.00;0.90;;;;;;;15.56;99.62;94854.28;4332596;32;20189;-67
2023/08/28 04:53:04;;;;;;;0.90;0.90;;;;;;;15.49;99.69;94867.41;4332746;32;20303;-67
2023/08/28 04:55:29;;;;;;;1.40;1.30;;;;;;;15.53;99.84;94883.56;4333763;32;20200;-67
2023/08/28 04:57:55;;;;;;;1.00;1.00;;;;;;;15.56;99.79;94878.34;4331135;32;20169;-67
2023/08/28 05:00:20;;;;;;;0.67;0.67;;;;;;;15.54;100.00;94861.84;4332039;32;20170;-67
2023/08/28 05:02:45;;;;;;;0.80;0.70;;;;;;;15.61;99.81;94878.09;4336322;32;20173;-67
2023/08/28 05:05:10;;;;;;;0.60;0.60;;;;;;;15.59;100.00;94882.25;4333620;32;20296;-66
2023/08/28 05:07:36;;;;;;;0.77;0.77;;;;;;;15.65;99.80;94884.34;4313001;32;20182;-66
2023/08/28 05:10:01;;;;;;;0.80;0.80;;;;;;;15.39;99.87;94876.63;4332668;32;20220;-67
2023/08/28 05:12:26;;;;;;;0.60;0.60;;;;;;;15.44;100.00;94871.06;4319921;32;20226;-67
2023/08/28 05:14:52;;;;;;;0.73;0.73;;;;;;;15.47;100.00;94870.41;4329213;32;20189;-67
2023/08/28 05:17:17;;;;;;;0.80;0.80;;;;;;;15.35;100.00;94873.09;4329221;32;20194;-67
2023/08/28 05:19:42;;;;;;;0.80;0.80;;;;;;;15.38;100.00;94867.06;4331849;32;20178;-67
2023/08/28 05:22:07;;;;;;;0.30;0.30;;;;;;;15.54;99.79;94853.81;4331191;32;20243;-66
2023/08/28 05:24:33;;;;;;;0.20;0.20;;;;;;;15.58;99.46;94830.69;4331839;32;20257;-66
2023/08/28 05:26:58;;;;;;;0.63;0.63;;;;;;;15.40;99.51;94835.44;4328456;32;20204;-66
2023/08/28 05:29:23;;;;;;;2.27;1.03;;;;;;;15.41;98.74;94833.53;4328819;32;20200;-67
2023/08/28 05:31:49;;;;;;;0.67;0.50;;;;;;;15.13;98.88;94836.91;4326188;32;20205;-67
2023/08/28 05:34:14;;;;;;;0.57;0.57;;;;;;;15.34;99.42;94836.00;4332126;32;20204;-67
2023/08/28 05:36:39;;;;;;;0.80;0.80;;;;;;;15.28;99.32;94829.31;4329555;32;20185;-67
2023/08/28 05:39:05;;;;;;;1.00;1.00;;;;;;;15.19;99.04;94817.97;4332081;32;20200;-67
2023/08/28 05:41:30;;;;;;;1.27;1.23;;;;;;;15.22;98.96;94819.97;4328715;32;20209;-67
2023/08/28 05:43:55;;;;;;;0.80;0.80;;;;;;;15.27;99.39;94804.50;4317012;32;20182;-67
2023/08/28 05:46:20;;;;;;;0.30;0.30;;;;;;;15.11;98.77;94793.72;4340237;32;20240;-67
2023/08/28 05:48:46;;;;;;;0.43;0.43;;;;;;;15.22;98.80;94793.25;4331915;32;20264;-67
2023/08/28 05:51:12;;;;;;;0.50;0.50;;;;;;;15.13;98.48;94786.13;4320261;32;20188;-67
2023/08/28 05:53:37;;;;;;;0.27;0.27;;;;;;;15.23;98.83;94754.72;4331805;32;20185;-67
2023/08/28 05:56:02;;;;;;;0.50;0.50;;;;;;;15.24;98.27;94724.97;4326220;32;20174;-67
2023/08/28 05:58:28;;;;;;;0.30;0.30;;;;;;;15.24;98.41;94708.94;4331588;32;20178;-67
2023/08/28 06:00:53;;;;;;;0.53;0.30;;;;;;;15.07;99.81;94683.28;4330168;32;20174;-67
2023/08/28 06:03:18;;;;;;;0.60;0.60;;;;;;;15.17;99.86;94699.97;4325125;32;20198;-67
2023/08/28 06:05:44;;;;;;;0.53;0.53;;;;;;;15.18;100.00;94718.31;4333702;32;20232;-67
2023/08/28 06:08:09;;;;;;;0.57;0.57;;;;;;;15.23;99.50;94719.97;4326651;32;20249;-67
2023/08/28 06:10:38;;;;;;;0.60;0.60;;;;;;;14.97;100.00;94713.09;4334507;32;20253;-67
2023/08/28 06:13:04;;;;;;;0.60;0.60;;;;;;;14.94;100.00;94723.72;4331813;32;20201;-67
2023/08/28 06:15:29;;;;;;;0.77;0.77;;;;;;;14.87;100.00;94739.50;4335246;32;20193;-66
2023/08/28 06:17:55;;;;;;;1.50;0.80;;;;;;;15.06;100.00;94742.37;4331647;32;20181;-67
2023/08/28 06:20:22;;;;;;;0.80;0.80;;;;;;;15.11;100.00;94748.28;4331482;32;20208;-67
2023/08/28 06:22:47;;;;;;;0.40;0.40;;;;;;;15.11;100.00;94761.66;4331138;32;20228;-67
2023/08/28 06:25:13;;;;;;;1.00;0.93;;;;;;;15.10;100.00;94762.75;4329240;32;20187;-67
2023/08/28 06:27:38;;;;;;;3.73;1.20;;;;;;;15.10;100.00;94760.09;4314555;32;20221;-67
2023/08/28 06:30:04;;;;;;;0.30;0.30;;;;;;;15.16;100.00;94759.88;4329514;32;20182;-66
2023/08/28 06:32:29;;;;;;;0.80;0.80;;;;;;;15.10;100.00;94765.44;4340634;32;20189;-66
2023/08/28 06:34:55;;;;;;;0.87;0.87;;;;;;;15.12;100.00;94783.81;4335179;32;20198;-67
2023/08/28 06:37:20;;;;;;;0.83;0.83;;;;;;;15.09;100.00;94787.91;4330776;32;20253;-67
2023/08/28 06:39:45;;;;;;;1.23;0.73;;;;;;;15.17;100.00;94788.94;4329800;32;20185;-67
2023/08/28 06:42:11;;;;;;;0.57;0.57;;;;;;;15.12;100.00;94776.56;4332494;32;20240;-67
2023/08/28 06:44:37;;;;;;;0.80;0.80;;;;;;;15.23;100.00;94776.09;4330510;32;20196;-66
2023/08/28 06:47:02;;;;;;;0.53;0.53;;;;;;;15.32;100.00;94777.53;4330628;32;20193;-67
2023/08/28 06:49:28;;;;;;;1.97;1.87;;;;;;;15.16;100.00;94776.69;4330641;32;20185;-67
2023/08/28 06:51:53;;;;;;;1.07;1.07;;;;;;;15.25;100.00;94760.50;4330802;32;20220;-66
2023/08/28 06:54:18;;;;;;;0.90;0.90;;;;;;;15.17;100.00;94748.84;4331036;32;20204;-67
2023/08/28 06:56:45;;;;;;;4.43;0.90;;;;;;;15.10;100.00;94760.09;4333176;32;20223;-66
2023/08/28 06:59:10;;;;;;;3.97;3.70;;;;;;;15.05;100.00;94749.63;4331039;32;20202;-67
2023/08/28 07:01:35;;;;;;;1.63;1.50;;;;;;;15.05;100.00;94728.25;4330708;32;20301;-67
2023/08/28 07:04:01;;;;;;;2.33;2.13;;;;;;;14.99;100.00;94736.81;4309778;32;20185;-67
2023/08/28 07:06:26;;;;;;;1.23;1.23;;;;;;;15.08;100.00;94735.59;4330252;32;20358;-66
2023/08/28 07:08:51;;;;;;;2.60;2.30;;;;;;;15.06;100.00;94739.72;4333083;32;20194;-67
2023/08/28 07:11:17;;;;;;;0.57;0.57;;;;;;;15.08;100.00;94738.25;4328677;32;20276;-67
2023/08/28 07:13:42;;;;;;;1.17;1.13;;;;;;;15.13;100.00;94729.25;4327484;32;20185;-67
2023/08/28 07:16:07;;;;;;;4.93;4.53;;;;;;;15.10;100.00;94720.00;4325822;32;20257;-67
2023/08/28 07:18:33;;;;;;;1.87;1.77;;;;;;;15.04;100.00;94732.03;4329841;32;20174;-67
2023/08/28 07:20:58;;;;;;;1.13;1.13;;;;;;;14.95;100.00;94728.72;4330714;32;20194;-67
2023/08/28 07:23:25;;;;;;;1.30;1.30;;;;;;;14.97;100.00;94728.34;4327347;32;20162;-67
2023/08/28 07:25:50;;;;;;;0.50;0.50;;;;;;;14.89;100.00;94727.37;4328603;32;20241;-67
2023/08/28 07:28:16;;;;;;;0.40;0.40;;;;;;;14.92;100.00;94724.03;4310803;32;20185;-66
2023/08/28 07:30:42;;;;;;;0.20;0.20;;;;;;;14.90;100.00;94723.59;4332038;32;20178;-67
2023/08/28 07:33:07;;;;;;;1.07;0.77;;;;;;;14.76;100.00;94723.12;4330626;32;20182;-67
2023/08/28 07:35:36;;;;;;;1.77;0.90;;;;;;;14.81;100.00;94716.78;4330492;32;20181;-66
2023/08/28 07:38:05;;;;;;;0.17;0.17;;;;;;;14.86;100.00;94703.22;4324092;32;20261;-66
2023/08/28 07:40:31;;;;;;;0.70;0.70;;;;;;;14.74;100.00;94690.66;4331244;32;20198;-67
2023/08/28 07:42:57;;;;;;;0.80;0.80;;;;;;;14.74;100.00;94677.31;4328881;32;20181;-67
2023/08/28 07:45:22;;;;;;;0.40;0.37;;;;;;;14.72;100.00;94663.53;4337897;32;20224;-67
2023/08/28 07:47:47;;;;;;;0.63;0.63;;;;;;;14.76;100.00;94667.06;4327732;32;20196;-67
2023/08/28 07:50:13;;;;;;;0.77;0.77;;;;;;;14.77;100.00;94679.28;4334954;32;20182;-67
2023/08/28 07:52:38;;;;;;;0.90;0.90;;;;;;;14.86;100.00;94685.31;4330192;32;20182;-67
2023/08/28 07:55:05;;;;;;;2.10;0.67;;;;;;;14.91;100.00;94713.69;4329466;32;20215;-67
2023/08/28 07:57:33;;;;;;;0.63;0.63;;;;;;;14.90;100.00;94738.84;4330797;32;20193;-67
2023/08/28 07:59:58;;;;;;;2.27;0.50;;;;;;;14.90;100.00;94741.50;4317018;32;20215;-67
2023/08/28 08:02:23;;;;;;;0.50;0.50;;;;;;;14.98;100.00;94749.37;4333394;32;20204;-67
2023/08/28 08:04:49;;;;;;;4.23;0.70;;;;;;;15.02;100.00;94757.50;4328833;32;20190;-67
2023/08/28 08:07:14;;;;;;;0.37;0.37;;;;;;;14.99;100.00;94766.97;4332603;32;20212;-66
2023/08/28 08:09:39;;;;;;;0.70;0.50;;;;;;;15.06;100.00;94775.22;4330774;32;20173;-66
2023/08/28 08:12:05;;;;;;;0.50;0.50;;;;;;;14.88;100.00;94775.78;4327568;32;20315;-67
2023/08/28 08:14:30;;;;;;;0.43;0.43;;;;;;;14.83;100.00;94776.78;4316442;32;20260;-66
2023/08/28 08:16:56;;;;;;;0.40;0.40;;;;;;;14.81;100.00;94778.22;4330785;32;20197;-66
2023/08/28 08:19:21;;;;;;;1.00;0.97;;;;;;;14.91;100.00;94783.91;4328040;32;20289;-66
2023/08/28 08:21:47;;;;;;;0.53;0.53;;;;;;;14.94;100.00;94791.25;4326298;32;20221;-67
2023/08/28 08:24:12;;;;;;;0.40;0.40;;;;;;;15.10;100.00;94791.38;4330573;32;20212;-67
2023/08/28 08:26:37;;;;;;;0.50;0.50;;;;;;;15.05;100.00;94802.28;4332741;32;20216;-67
2023/08/28 08:29:03;;;;;;;0.57;0.57;;;;;;;15.10;100.00;94813.53;4330805;32;20186;-67
2023/08/28 08:31:28;;;;;;;0.20;0.20;;;;;;;15.22;100.00;94820.75;4330527;32;20182;-67
2023/08/28 08:33:53;;;;;;;0.60;0.50;;;;;;;15.26;100.00;94828.88;4329961;32;20247;-66
2023/08/28 08:36:19;;;;;;;0.20;0.20;;;;;;;15.26;100.00;94834.22;4332785;32;20186;-67
2023/08/28 08:38:44;;;;;;;0.37;0.37;;;;;;;15.21;100.00;94835.22;4324308;32;20182;-66
2023/08/28 08:41:10;;;;;;;0.57;0.53;;;;;;;15.42;100.00;94827.84;4341723;32;20194;-67
2023/08/28 08:43:35;;;;;;;0.40;0.40;;;;;;;15.43;100.00;94821.41;4332232;32;20177;-66
2023/08/28 08:46:04;;;;;;;0.50;0.50;;;;;;;15.31;100.00;94823.31;4330749;32;20261;-66
2023/08/28 08:48:33;;;;;;;0.33;0.33;;;;;;;15.44;100.00;94822.19;4333889;32;20186;-67
2023/08/28 08:51:04;;;;;;;0.67;0.67;;;;;;;15.46;100.00;94820.72;4319997;32;20253;-67
2023/08/28 08:53:45;;;;;;;0.30;0.30;;;;;;;15.60;100.00;94825.75;4331076;32;20227;-67
2023/08/28 08:56:15;;;;;;;0.50;0.50;;;;;;;15.64;100.00;94829.31;4330103;32;20190;-67
2023/08/28 08:58:41;;;;;;;0.40;0.40;;;;;;;15.52;100.00;94831.97;4326720;32;20285;-67
2023/08/28 09:01:07;;;;;;;0.90;0.40;;;;;;;15.44;100.00;94825.63;4329291;32;20212;-67
2023/08/28 09:03:32;;;;;;;0.20;0.20;;;;;;;15.38;100.00;94820.88;4340895;32;20182;-67
2023/08/28 09:05:59;;;;;;;0.60;0.60;;;;;;;15.33;100.00;94803.16;4332100;32;20225;-67
2023/08/28 09:08:26;;;;;;;0.10;0.10;;;;;;;15.42;100.00;94760.25;4337931;32;20204;-66
2023/08/28 09:10:51;;;;;;;0.40;0.40;;;;;;;15.32;100.00;94740.13;4331900;32;20197;-66
2023/08/28 09:13:16;;;;;;;0.30;0.30;;;;;;;15.22;100.00;94707.72;4329210;32;20189;-67
2023/08/28 09:15:42;;;;;;;0.10;0.10;;;;;;;15.00;100.00;94659.00;4332556;32;20169;-67
2023/08/28 09:18:07;;;;;;;1.17;0.97;;;;;;;15.03;100.00;94633.53;4334346;32;20178;-67
2023/08/28 09:20:34;;;;;;;0.20;0.20;;;;;;;15.04;100.00;94629.72;4332389;32;20201;-66
2023/08/28 09:23:00;;;;;;;0.53;0.30;;;;;;;14.93;100.00;94615.31;4332672;32;20185;-66
2023/08/28 09:25:26;;;;;;;1.03;1.03;;;;;;;14.84;100.00;94596.72;4333018;32;20196;-66
2023/08/28 09:27:53;;;;;;;0.63;0.63;;;;;;;14.82;100.00;94585.59;4332459;32;20205;-67
2023/08/28 09:30:38;;;;;;;0.30;0.30;;;;;;;14.88;100.00;94610.19;4335253;32;20204;-66
2023/08/28 09:33:07;;;;;;;0.60;0.60;;;;;;;14.90;100.00;94634.69;4331727;32;20182;-67
2023/08/28 09:35:44;;;;;;;0.40;0.40;;;;;;;14.86;100.00;94647.91;4330817;32;20252;-67
2023/08/28 09:38:10;;;;;;;0.23;0.23;;;;;;;14.96;100.00;94665.37;4330998;32;20231;-67
2023/08/28 09:40:40;;;;;;;0.30;0.30;;;;;;;14.99;100.00;94664.69;4333096;32;20200;-67
2023/08/28 09:43:16;;;;;;;0.40;0.40;;;;;;;15.08;100.00;94650.09;4321147;32;20193;-67
2023/08/28 09:45:43;;;;;;;0.37;0.37;;;;;;;15.08;100.00;94650.09;4335269;32;20185;-66
2023/08/28 09:48:10;;;;;;;0.17;0.17;;;;;;;15.05;100.00;94650.78;4330178;32;20209;-67
2023/08/28 09:50:38;;;;;;;0.57;0.40;;;;;;;15.07;100.00;94664.56;4330078;32;20204;-66
2023/08/28 09:53:09;;;;;;;1.07;0.63;;;;;;;15.03;100.00;94669.03;4329252;32;20182;-67
2023/08/28 09:55:38;;;;;;;0.60;0.60;;;;;;;15.00;100.00;94668.91;4331703;32;20265;-66
2023/08/28 09:58:10;;;;;;;0.37;0.37;;;;;;;15.05;100.00;94661.47;4332121;32;20265;-67
2023/08/28 10:00:38;;;;;;;0.10;0.10;;;;;;;15.15;100.00;94657.56;4332092;32;20178;-67
2023/08/28 10:03:06;;;;;;;0.40;0.40;;;;;;;15.22;100.00;94644.38;4330024;32;20181;-66
2023/08/28 10:05:35;;;;;;;0.50;0.50;;;;;;;15.07;100.00;94648.53;4317798;32;20200;-66
2023/08/28 10:08:04;;;;;;;0.30;0.30;;;;;;;15.17;100.00;94644.63;4318442;32;22778;-67
2023/08/28 10:10:29;;;;;;;0.30;0.30;;;;;;;15.26;100.00;94641.81;4337429;32;20224;-66
2023/08/28 10:12:55;;;;;;;0.77;0.70;;;;;;;15.36;100.00;94649.34;4326295;32;20185;-66
2023/08/28 10:15:22;;;;;;;0.97;0.73;;;;;;;15.34;100.00;94641.69;4338514;32;20280;-66
2023/08/28 10:17:49;;;;;;;0.10;0.10;;;;;;;15.30;100.00;94634.69;4331469;32;20198;-66
2023/08/28 10:20:17;;;;;;;0.43;0.43;;;;;;;15.37;100.00;94630.31;4331748;32;20201;-67
2023/08/28 10:22:43;;;;;;;0.17;0.17;;;;;;;15.54;100.00;94629.22;4340302;32;20181;-67
2023/08/28 10:25:11;;;;;;;0.27;0.27;;;;;;;15.60;100.00;94640.47;4320136;32;20186;-66
2023/08/28 10:27:37;;;;;;;0.57;0.57;;;;;;;15.66;100.00;94657.81;4331794;32;20194;-66
2023/08/28 10:30:03;;;;;;;0.20;0.20;;;;;;;15.74;98.67;94656.91;4326974;32;20217;-66
2023/08/28 10:32:30;;;;;;;0.30;0.30;;;;;;;15.73;97.22;94658.81;4316848;32;20227;-66
2023/08/28 10:34:57;;;;;;;0.20;0.20;;;;;;;15.85;97.73;94652.59;4334627;32;20253;-66
2023/08/28 10:37:23;;;;;;;0.10;0.10;;;;;;;15.88;97.79;94643.91;4326508;32;20216;-67
2023/08/28 10:39:49;;;;;;;0.17;0.17;;;;;;;16.02;97.88;94622.06;4327092;32;20201;-66
2023/08/28 10:42:18;;;;;;;0.10;0.10;;;;;;;16.01;96.34;94609.81;4330585;32;20244;-66
2023/08/28 10:44:45;;;;;;;0.47;0.47;;;;;;;15.96;96.32;94612.75;4330057;32;20169;-66
2023/08/28 10:47:19;;;;;;;1.03;0.80;;;;;;;15.94;96.80;94615.78;4330890;32;20181;-66
2023/08/28 10:49:44;;;;;;;0.77;0.77;;;;;;;15.93;96.92;94632.19;4331024;32;20177;-65
2023/08/28 10:52:10;;;;;;;0.90;0.90;;;;;;;15.92;96.91;94633.28;4333021;32;20207;-65
2023/08/28 10:54:37;;;;;;;0.27;0.27;;;;;;;16.13;97.43;94623.91;4323645;32;20191;-65
2023/08/28 10:57:06;;;;;;;0.17;0.17;;;;;;;16.10;95.50;94621.13;4331297;32;20182;-65
2023/08/28 10:59:42;;;;;;;0.33;0.33;;;;;;;15.91;96.61;94632.50;4329098;32;20257;-65
2023/08/28 11:02:09;;;;;;;0.10;0.10;;;;;;;15.96;96.92;94634.94;4331286;32;20194;-65
2023/08/28 11:04:36;;;;;;;0.30;0.30;;;;;;;16.02;96.62;94632.78;4329652;32;20196;-66
2023/08/28 11:07:02;;;;;;;0.30;0.30;;;;;;;15.97;96.43;94630.38;4329519;32;20260;-65
2023/08/28 11:09:27;;;;;;;0.63;0.63;;;;;;;16.05;96.16;94599.97;4330993;32;20196;-65
2023/08/28 11:11:59;;;;;;;0.20;0.20;;;;;;;16.08;96.73;94585.91;4331312;32;20209;-65
2023/08/28 11:14:26;;;;;;;0.13;0.13;;;;;;;16.13;95.65;94588.34;4330946;32;20186;-65
2023/08/28 11:17:10;;;;;;;0.27;0.27;;;;;;;16.23;95.19;94587.78;4327417;32;20193;-65
2023/08/28 11:19:54;;;;;;;0.00;0.00;;;;;;;16.20;94.71;94585.84;4316775;32;20200;-65
2023/08/28 11:22:32;;;;;;;0.10;0.10;;;;;;;16.23;94.98;94590.47;4330322;32;20220;-65
2023/08/28 11:24:58;;;;;;;0.40;0.40;;;;;;;16.26;95.03;94570.28;4325414;32;20272;-65
2023/08/28 11:27:36;;;;;;;0.10;0.10;;;;;;;16.22;94.65;94564.06;4331030;32;20185;-65